CheckWX is a tool to help pilots better visualize weather data.  It is not intended as a substitute for an official pre-flight weather briefing.

21:23:49 UTC

RJSK METAR
Akita Airport
Akita, Japan
Current

9 hours ago

RJSK 231200Z 30007KT 280V340 9999 FEW020 SCT040 BKN050 02/M06 Q1020
Observed
Feb-23 @ 12:00 UTC
Wind
  • 300° at 7 KTS
Visibility
10,000+ meters
Flight Rules
VFR
Cloud Levels
  • Few at 2,000' AGL
  • Scattered at 4,000' AGL
  • Broken at 5,000' AGL
Temperature
C / 36°F
Dewpoint
-6°C / 21°F
Humidity
56%
Altimeter
30.12" Hg
Pressure
1019.92 hPa
Previous

10 hours ago

RJSK 231100Z 30008KT 9999 -SHSN FEW020 SCT040 BKN045 03/M06 Q1019
Observed
Feb-23 @ 11:00 UTC
Wind
  • 300° at 8 KTS
Visibility
10,000+ meters
Flight Rules
VFR
Conditions
Light Snow
Cloud Levels
  • Few at 2,000' AGL
  • Scattered at 4,000' AGL
  • Broken at 4,500' AGL
Temperature
C / 37°F
Dewpoint
-6°C / 21°F
Humidity
52%
Altimeter
30.09" Hg
Pressure
1018.92 hPa
Previous

11 hours ago

RJSK 231000Z 31009KT 9999 FEW020 SCT045 BKN050 03/M06 Q1018
Observed
Feb-23 @ 10:00 UTC
Wind
  • 310° at 9 KTS
Visibility
10,000+ meters
Flight Rules
VFR
Cloud Levels
  • Few at 2,000' AGL
  • Scattered at 4,500' AGL
  • Broken at 5,000' AGL
Temperature
C / 37°F
Dewpoint
-6°C / 21°F
Humidity
52%
Altimeter
30.06" Hg
Pressure
1017.92 hPa